Skikda, Algeria
Current Conditions -  °F | °C
As of 1:00 PM on Wednesday 28 Jan 2015 (Local Time) from DABC Reporting Station
Broken Clouds Broken Clouds  
Wind Chill: 34°   Ceiling: 2000
Heat Index: 43°   Visibility: 5mi
Dew Point: 36°   Wind: 21mph
Humidity: 76%   Direction: 320°NW
Pressure: 30.09"   Gusts: NA
Location:  36.74°N, 6.91°E
Report Text: DABC 281200Z 32018KT 8000 SCT010 FEW016TCU BKN020 06/02 Q1019
Loading
Personal Weather Stations






























Interactive Weather Map New forecast layout! Learn more

10-Day Weather Forecast

Advertisements
Track Severe Weather on mobile